sensor_id;sensor_type;location;lat;lon;timestamp;temperature;humidity
1011;DHT22;494;48.744;10.106;2023-07-31T00:01:38;15.50;99.90
1011;DHT22;494;48.744;10.106;2023-07-31T09:44:18;25.30;99.90
1011;DHT22;494;48.744;10.106;2023-07-31T09:46:47;25.10;99.90
1011;DHT22;494;48.744;10.106;2023-07-31T09:49:32;25.20;99.90
1011;DHT22;494;48.744;10.106;2023-07-31T09:52:20;25.30;99.90
1011;DHT22;494;48.744;10.106;2023-07-31T09:54:51;25.20;59.60
1011;DHT22;494;48.744;10.106;2023-07-31T09:57:59;25.50;34.90
1011;DHT22;494;48.744;10.106;2023-07-31T10:00:45;25.70;1.00
1011;DHT22;494;48.744;10.106;2023-07-31T10:03:20;26.00;3.30
1011;DHT22;494;48.744;10.106;2023-07-31T10:05:57;26.10;1.00
1011;DHT22;494;48.744;10.106;2023-07-31T10:08:36;26.20;1.00
1011;DHT22;494;48.744;10.106;2023-07-31T10:11:10;26.10;1.00
1011;DHT22;494;48.744;10.106;2023-07-31T10:13:41;26.10;1.00
1011;DHT22;494;48.744;10.106;2023-07-31T10:16:13;25.80;1.00
1011;DHT22;494;48.744;10.106;2023-07-31T10:18:45;25.60;1.00
1011;DHT22;494;48.744;10.106;2023-07-31T10:21:16;25.90;1.00
1011;DHT22;494;48.744;10.106;2023-07-31T10:23:47;26.00;1.00
1011;DHT22;494;48.744;10.106;2023-07-31T10:26:19;26.10;1.00
1011;DHT22;494;48.744;10.106;2023-07-31T10:28:52;26.50;1.00
1011;DHT22;494;48.744;10.106;2023-07-31T10:31:23;26.70;1.00
1011;DHT22;494;48.744;10.106;2023-07-31T10:33:54;27.00;1.00
1011;DHT22;494;48.744;10.106;2023-07-31T10:36:25;27.00;1.00
1011;DHT22;494;48.744;10.106;2023-07-31T10:38:56;27.20;1.00
1011;DHT22;494;48.744;10.106;2023-07-31T10:41:29;27.10;1.00
1011;DHT22;494;48.744;10.106;2023-07-31T10:43:59;27.20;1.00
1011;DHT22;494;48.744;10.106;2023-07-31T10:46:30;27.60;1.00
1011;DHT22;494;48.744;10.106;2023-07-31T10:49:04;28.00;1.00
1011;DHT22;494;48.744;10.106;2023-07-31T10:51:33;28.00;1.00
1011;DHT22;494;48.744;10.106;2023-07-31T10:54:13;28.10;1.00
1011;DHT22;494;48.744;10.106;2023-07-31T10:56:45;28.00;1.00
1011;DHT22;494;48.744;10.106;2023-07-31T10:59:14;27.90;1.00
1011;DHT22;494;48.744;10.106;2023-07-31T11:02:06;27.90;1.00
1011;DHT22;494;48.744;10.106;2023-07-31T11:05:16;27.70;1.00
1011;DHT22;494;48.744;10.106;2023-07-31T11:07:47;27.70;1.00
1011;DHT22;494;48.744;10.106;2023-07-31T11:10:24;27.90;1.00
1011;DHT22;494;48.744;10.106;2023-07-31T11:12:53;27.70;1.00
1011;DHT22;494;48.744;10.106;2023-07-31T11:15:22;27.80;1.00
1011;DHT22;494;48.744;10.106;2023-07-31T11:17:52;27.90;1.00
1011;DHT22;494;48.744;10.106;2023-07-31T11:20:21;28.10;1.00
1011;DHT22;494;48.744;10.106;2023-07-31T11:22:51;28.50;1.00
1011;DHT22;494;48.744;10.106;2023-07-31T11:25:22;28.60;1.00
1011;DHT22;494;48.744;10.106;2023-07-31T11:27:52;28.60;1.00
1011;DHT22;494;48.744;10.106;2023-07-31T11:30:23;28.80;1.00
1011;DHT22;494;48.744;10.106;2023-07-31T11:32:55;29.20;1.00
1011;DHT22;494;48.744;10.106;2023-07-31T11:35:24;29.40;1.00
1011;DHT22;494;48.744;10.106;2023-07-31T11:37:53;29.50;1.00
1011;DHT22;494;48.744;10.106;2023-07-31T11:40:22;29.60;1.00
1011;DHT22;494;48.744;10.106;2023-07-31T11:43:03;29.60;1.00
1011;DHT22;494;48.744;10.106;2023-07-31T11:45:33;29.60;1.00
1011;DHT22;494;48.744;10.106;2023-07-31T11:48:04;29.60;1.00
1011;DHT22;494;48.744;10.106;2023-07-31T11:50:34;29.60;1.00
1011;DHT22;494;48.744;10.106;2023-07-31T11:53:08;29.40;1.00
1011;DHT22;494;48.744;10.106;2023-07-31T11:55:38;29.30;1.00
1011;DHT22;494;48.744;10.106;2023-07-31T11:58:08;29.50;1.00
1011;DHT22;494;48.744;10.106;2023-07-31T12:00:38;29.50;1.00
1011;DHT22;494;48.744;10.106;2023-07-31T12:03:08;29.60;1.00
1011;DHT22;494;48.744;10.106;2023-07-31T12:05:38;29.30;1.00
1011;DHT22;494;48.744;10.106;2023-07-31T12:08:11;29.20;1.00
1011;DHT22;494;48.744;10.106;2023-07-31T12:10:40;29.10;1.00
1011;DHT22;494;48.744;10.106;2023-07-31T12:13:10;29.30;1.00
1011;DHT22;494;48.744;10.106;2023-07-31T12:15:42;29.60;1.00
1011;DHT22;494;48.744;10.106;2023-07-31T12:18:15;29.90;1.00
1011;DHT22;494;48.744;10.106;2023-07-31T12:20:49;30.30;1.00
1011;DHT22;494;48.744;10.106;2023-07-31T12:23:25;30.40;1.00
1011;DHT22;494;48.744;10.106;2023-07-31T12:26:02;30.40;1.00
1011;DHT22;494;48.744;10.106;2023-07-31T12:28:35;30.60;1.00
1011;DHT22;494;48.744;10.106;2023-07-31T12:31:08;30.30;1.00
1011;DHT22;494;48.744;10.106;2023-07-31T12:33:40;29.60;1.00
1011;DHT22;494;48.744;10.106;2023-07-31T12:36:12;29.20;1.00
1011;DHT22;494;48.744;10.106;2023-07-31T12:38:42;29.10;1.00
1011;DHT22;494;48.744;10.106;2023-07-31T12:41:13;29.00;1.00
1011;DHT22;494;48.744;10.106;2023-07-31T12:43:43;28.90;1.00
1011;DHT22;494;48.744;10.106;2023-07-31T12:46:13;28.80;1.00
1011;DHT22;494;48.744;10.106;2023-07-31T12:48:46;29.00;1.00
1011;DHT22;494;48.744;10.106;2023-07-31T12:51:14;29.00;1.00
1011;DHT22;494;48.744;10.106;2023-07-31T12:53:44;29.20;1.00
1011;DHT22;494;48.744;10.106;2023-07-31T12:56:12;29.40;1.00
1011;DHT22;494;48.744;10.106;2023-07-31T12:58:41;29.50;1.00
1011;DHT22;494;48.744;10.106;2023-07-31T13:01:10;29.30;1.00
1011;DHT22;494;48.744;10.106;2023-07-31T13:03:39;29.10;1.00
1011;DHT22;494;48.744;10.106;2023-07-31T13:06:10;28.70;1.00
1011;DHT22;494;48.744;10.106;2023-07-31T13:08:39;28.50;1.00
1011;DHT22;494;48.744;10.106;2023-07-31T13:11:08;28.50;1.00
1011;DHT22;494;48.744;10.106;2023-07-31T13:13:37;28.80;1.00
1011;DHT22;494;48.744;10.106;2023-07-31T13:16:08;29.10;1.00
1011;DHT22;494;48.744;10.106;2023-07-31T13:18:37;29.30;1.00
1011;DHT22;494;48.744;10.106;2023-07-31T13:21:06;29.40;1.00
1011;DHT22;494;48.744;10.106;2023-07-31T13:23:36;29.50;1.00
1011;DHT22;494;48.744;10.106;2023-07-31T13:26:05;29.00;1.00
1011;DHT22;494;48.744;10.106;2023-07-31T13:28:33;28.70;1.00
1011;DHT22;494;48.744;10.106;2023-07-31T13:31:02;28.70;1.00
1011;DHT22;494;48.744;10.106;2023-07-31T13:33:31;28.60;1.00
1011;DHT22;494;48.744;10.106;2023-07-31T13:36:05;28.70;1.00
1011;DHT22;494;48.744;10.106;2023-07-31T13:38:34;29.20;1.00
1011;DHT22;494;48.744;10.106;2023-07-31T13:41:04;29.70;1.00
1011;DHT22;494;48.744;10.106;2023-07-31T13:43:33;29.70;1.00
1011;DHT22;494;48.744;10.106;2023-07-31T13:46:02;29.80;1.00
1011;DHT22;494;48.744;10.106;2023-07-31T13:48:34;29.60;1.00
1011;DHT22;494;48.744;10.106;2023-07-31T13:51:05;29.40;1.00
1011;DHT22;494;48.744;10.106;2023-07-31T13:53:33;29.10;1.00
1011;DHT22;494;48.744;10.106;2023-07-31T13:56:04;28.90;1.00
1011;DHT22;494;48.744;10.106;2023-07-31T13:58:33;28.40;1.00
1011;DHT22;494;48.744;10.106;2023-07-31T14:01:02;28.30;1.00
1011;DHT22;494;48.744;10.106;2023-07-31T14:03:31;28.10;1.00
1011;DHT22;494;48.744;10.106;2023-07-31T14:06:00;28.00;1.00
1011;DHT22;494;48.744;10.106;2023-07-31T14:08:29;27.90;1.00
1011;DHT22;494;48.744;10.106;2023-07-31T14:10:59;27.80;1.00
1011;DHT22;494;48.744;10.106;2023-07-31T14:13:29;27.80;1.00
1011;DHT22;494;48.744;10.106;2023-07-31T14:15:58;27.90;1.00
1011;DHT22;494;48.744;10.106;2023-07-31T14:18:27;28.00;1.00
1011;DHT22;494;48.744;10.106;2023-07-31T14:20:56;28.00;1.00
1011;DHT22;494;48.744;10.106;2023-07-31T14:23:25;27.80;1.00
1011;DHT22;494;48.744;10.106;2023-07-31T14:25:54;27.90;1.00
1011;DHT22;494;48.744;10.106;2023-07-31T14:28:24;27.60;1.00
1011;DHT22;494;48.744;10.106;2023-07-31T14:30:53;27.30;1.00
1011;DHT22;494;48.744;10.106;2023-07-31T14:33:22;27.10;1.00
1011;DHT22;494;48.744;10.106;2023-07-31T14:35:51;26.80;1.00
1011;DHT22;494;48.744;10.106;2023-07-31T14:38:21;26.60;1.00
1011;DHT22;494;48.744;10.106;2023-07-31T14:40:51;26.60;1.00
1011;DHT22;494;48.744;10.106;2023-07-31T14:43:21;26.60;1.00
1011;DHT22;494;48.744;10.106;2023-07-31T14:45:51;26.60;1.00
1011;DHT22;494;48.744;10.106;2023-07-31T14:48:23;26.60;1.00
1011;DHT22;494;48.744;10.106;2023-07-31T14:50:51;26.60;1.00
1011;DHT22;494;48.744;10.106;2023-07-31T14:53:21;26.50;1.00
1011;DHT22;494;48.744;10.106;2023-07-31T14:55:50;26.50;1.00
1011;DHT22;494;48.744;10.106;2023-07-31T14:58:19;26.40;1.00
1011;DHT22;494;48.744;10.106;2023-07-31T15:00:49;26.20;1.00
1011;DHT22;494;48.744;10.106;2023-07-31T15:03:19;26.30;1.00
1011;DHT22;494;48.744;10.106;2023-07-31T15:05:48;26.40;1.00
1011;DHT22;494;48.744;10.106;2023-07-31T15:08:21;26.40;1.00
1011;DHT22;494;48.744;10.106;2023-07-31T15:10:51;26.70;1.00
1011;DHT22;494;48.744;10.106;2023-07-31T15:13:24;26.80;1.00
1011;DHT22;494;48.744;10.106;2023-07-31T15:15:55;26.80;1.00
1011;DHT22;494;48.744;10.106;2023-07-31T15:18:25;26.70;1.00
1011;DHT22;494;48.744;10.106;2023-07-31T15:20:54;26.60;1.00
1011;DHT22;494;48.744;10.106;2023-07-31T15:23:23;26.60;1.00
1011;DHT22;494;48.744;10.106;2023-07-31T15:25:53;26.70;1.00
1011;DHT22;494;48.744;10.106;2023-07-31T15:31:13;26.50;1.00
1011;DHT22;494;48.744;10.106;2023-07-31T15:33:42;26.40;1.00
1011;DHT22;494;48.744;10.106;2023-07-31T15:53:09;26.50;1.00
1011;DHT22;494;48.744;10.106;2023-07-31T15:55:40;26.60;1.00
1011;DHT22;494;48.744;10.106;2023-07-31T15:58:10;26.60;1.00
1011;DHT22;494;48.744;10.106;2023-07-31T16:05:03;27.00;1.00
1011;DHT22;494;48.744;10.106;2023-07-31T16:08:27;27.10;1.00
1011;DHT22;494;48.744;10.106;2023-07-31T16:11:02;27.30;1.00
1011;DHT22;494;48.744;10.106;2023-07-31T16:13:46;27.00;1.00
1011;DHT22;494;48.744;10.106;2023-07-31T16:16:28;27.00;1.00
1011;DHT22;494;48.744;10.106;2023-07-31T16:19:12;27.00;1.00
1011;DHT22;494;48.744;10.106;2023-07-31T16:22:13;26.70;1.00
1011;DHT22;494;48.744;10.106;2023-07-31T16:24:45;26.40;1.00
1011;DHT22;494;48.744;10.106;2023-07-31T16:27:14;26.40;1.00
1011;DHT22;494;48.744;10.106;2023-07-31T16:29:44;26.10;1.00
1011;DHT22;494;48.744;10.106;2023-07-31T16:32:13;25.90;1.00
1011;DHT22;494;48.744;10.106;2023-07-31T16:34:47;25.80;1.00
1011;DHT22;494;48.744;10.106;2023-07-31T16:37:15;26.00;1.00
1011;DHT22;494;48.744;10.106;2023-07-31T16:39:52;26.00;1.00
1011;DHT22;494;48.744;10.106;2023-07-31T16:42:22;26.20;1.00
1011;DHT22;494;48.744;10.106;2023-07-31T16:44:51;26.50;1.00
1011;DHT22;494;48.744;10.106;2023-07-31T16:47:20;26.70;1.00
1011;DHT22;494;48.744;10.106;2023-07-31T16:49:53;26.80;1.00
1011;DHT22;494;48.744;10.106;2023-07-31T16:52:22;26.80;1.00
1011;DHT22;494;48.744;10.106;2023-07-31T16:54:53;26.90;1.00
1011;DHT22;494;48.744;10.106;2023-07-31T16:57:21;27.00;1.00
1011;DHT22;494;48.744;10.106;2023-07-31T16:59:51;27.00;1.00
1011;DHT22;494;48.744;10.106;2023-07-31T17:02:20;26.90;1.00
1011;DHT22;494;48.744;10.106;2023-07-31T17:04:50;26.80;1.00
1011;DHT22;494;48.744;10.106;2023-07-31T17:07:20;27.00;1.00
1011;DHT22;494;48.744;10.106;2023-07-31T17:09:56;27.30;1.00
1011;DHT22;494;48.744;10.106;2023-07-31T17:12:26;27.60;1.00
1011;DHT22;494;48.744;10.106;2023-07-31T17:14:57;27.60;1.00
1011;DHT22;494;48.744;10.106;2023-07-31T17:17:25;27.60;1.00
1011;DHT22;494;48.744;10.106;2023-07-31T17:19:55;27.50;1.00
1011;DHT22;494;48.744;10.106;2023-07-31T17:22:24;27.30;1.00
1011;DHT22;494;48.744;10.106;2023-07-31T17:25:13;27.00;1.00
1011;DHT22;494;48.744;10.106;2023-07-31T17:27:43;26.80;1.00
1011;DHT22;494;48.744;10.106;2023-07-31T17:30:12;26.60;1.00
1011;DHT22;494;48.744;10.106;2023-07-31T17:32:41;26.50;1.00
1011;DHT22;494;48.744;10.106;2023-07-31T17:35:10;26.40;1.00
1011;DHT22;494;48.744;10.106;2023-07-31T17:37:39;26.10;1.00
1011;DHT22;494;48.744;10.106;2023-07-31T17:40:09;26.00;1.00
1011;DHT22;494;48.744;10.106;2023-07-31T17:42:40;25.90;1.00
1011;DHT22;494;48.744;10.106;2023-07-31T17:45:10;25.70;1.00
1011;DHT22;494;48.744;10.106;2023-07-31T17:47:39;25.60;1.00
1011;DHT22;494;48.744;10.106;2023-07-31T17:50:17;25.50;1.00
1011;DHT22;494;48.744;10.106;2023-07-31T17:52:46;25.40;1.00
1011;DHT22;494;48.744;10.106;2023-07-31T17:55:15;25.40;1.00
1011;DHT22;494;48.744;10.106;2023-07-31T17:57:46;25.20;1.00
1011;DHT22;494;48.744;10.106;2023-07-31T18:00:15;24.90;1.00
1011;DHT22;494;48.744;10.106;2023-07-31T18:02:44;24.80;1.00
1011;DHT22;494;48.744;10.106;2023-07-31T18:05:13;24.60;1.00
1011;DHT22;494;48.744;10.106;2023-07-31T18:07:43;24.60;1.00
1011;DHT22;494;48.744;10.106;2023-07-31T18:10:11;24.70;1.00
1011;DHT22;494;48.744;10.106;2023-07-31T18:12:40;24.80;1.00
1011;DHT22;494;48.744;10.106;2023-07-31T18:15:11;24.70;1.00
1011;DHT22;494;48.744;10.106;2023-07-31T18:17:40;24.60;1.00
1011;DHT22;494;48.744;10.106;2023-07-31T18:20:13;24.40;1.00
1011;DHT22;494;48.744;10.106;2023-07-31T18:22:45;24.30;1.00
1011;DHT22;494;48.744;10.106;2023-07-31T18:25:14;24.30;1.00
1011;DHT22;494;48.744;10.106;2023-07-31T18:27:43;24.30;1.00
1011;DHT22;494;48.744;10.106;2023-07-31T18:30:17;24.40;1.00
1011;DHT22;494;48.744;10.106;2023-07-31T18:32:47;24.40;1.00
1011;DHT22;494;48.744;10.106;2023-07-31T18:35:15;24.40;1.00
1011;DHT22;494;48.744;10.106;2023-07-31T18:37:47;24.30;1.00
1011;DHT22;494;48.744;10.106;2023-07-31T18:40:16;24.20;99.90
1011;DHT22;494;48.744;10.106;2023-07-31T18:42:48;24.20;1.00
1011;DHT22;494;48.744;10.106;2023-07-31T18:45:20;24.20;1.00
1011;DHT22;494;48.744;10.106;2023-07-31T18:47:50;24.20;1.00
1011;DHT22;494;48.744;10.106;2023-07-31T18:50:20;24.00;1.00
1011;DHT22;494;48.744;10.106;2023-07-31T18:52:50;24.00;1.00
1011;DHT22;494;48.744;10.106;2023-07-31T18:55:19;23.70;1.00
1011;DHT22;494;48.744;10.106;2023-07-31T18:57:49;23.70;1.00
1011;DHT22;494;48.744;10.106;2023-07-31T19:00:20;23.60;1.00
1011;DHT22;494;48.744;10.106;2023-07-31T19:02:50;23.60;2.90
1011;DHT22;494;48.744;10.106;2023-07-31T19:05:19;23.50;99.90
1011;DHT22;494;48.744;10.106;2023-07-31T19:07:48;23.50;1.00
1011;DHT22;494;48.744;10.106;2023-07-31T19:10:17;23.40;1.00
1011;DHT22;494;48.744;10.106;2023-07-31T19:12:46;23.30;1.00
1011;DHT22;494;48.744;10.106;2023-07-31T19:15:16;23.30;1.00
1011;DHT22;494;48.744;10.106;2023-07-31T19:17:48;23.10;98.20
1011;DHT22;494;48.744;10.106;2023-07-31T19:20:17;22.90;1.00
1011;DHT22;494;48.744;10.106;2023-07-31T19:22:46;22.60;1.00
1011;DHT22;494;48.744;10.106;2023-07-31T19:25:14;22.50;1.00
1011;DHT22;494;48.744;10.106;2023-07-31T19:27:47;22.40;1.00
1011;DHT22;494;48.744;10.106;2023-07-31T19:30:24;22.30;99.40
1011;DHT22;494;48.744;10.106;2023-07-31T19:32:57;22.20;61.10
1011;DHT22;494;48.744;10.106;2023-07-31T19:35:28;22.10;1.00
1011;DHT22;494;48.744;10.106;2023-07-31T19:37:57;22.10;99.90
1011;DHT22;494;48.744;10.106;2023-07-31T19:40:26;22.00;1.00
1011;DHT22;494;48.744;10.106;2023-07-31T19:43:09;21.90;1.00
1011;DHT22;494;48.744;10.106;2023-07-31T19:45:49;21.80;1.00
1011;DHT22;494;48.744;10.106;2023-07-31T19:48:21;21.70;1.00
1011;DHT22;494;48.744;10.106;2023-07-31T19:50:53;21.60;99.90
1011;DHT22;494;48.744;10.106;2023-07-31T19:53:25;21.60;1.00
1011;DHT22;494;48.744;10.106;2023-07-31T19:55:54;21.50;99.90
1011;DHT22;494;48.744;10.106;2023-07-31T19:58:32;21.50;1.00
1011;DHT22;494;48.744;10.106;2023-07-31T20:01:19;21.40;1.00
1011;DHT22;494;48.744;10.106;2023-07-31T20:04:28;21.30;1.00
1011;DHT22;494;48.744;10.106;2023-07-31T20:07:04;21.20;1.00
1011;DHT22;494;48.744;10.106;2023-07-31T20:09:46;21.00;1.00
1011;DHT22;494;48.744;10.106;2023-07-31T20:12:39;21.00;99.90
1011;DHT22;494;48.744;10.106;2023-07-31T20:15:28;20.80;99.90
1011;DHT22;494;48.744;10.106;2023-07-31T20:18:14;20.70;1.00
1011;DHT22;494;48.744;10.106;2023-07-31T20:21:00;20.70;99.90
1011;DHT22;494;48.744;10.106;2023-07-31T20:24:09;20.70;99.90
1011;DHT22;494;48.744;10.106;2023-07-31T20:26:47;20.80;1.00
1011;DHT22;494;48.744;10.106;2023-07-31T20:29:23;20.80;99.90
1011;DHT22;494;48.744;10.106;2023-07-31T20:32:16;20.70;99.90
1011;DHT22;494;48.744;10.106;2023-07-31T20:35:09;20.70;66.90
1011;DHT22;494;48.744;10.106;2023-07-31T20:37:57;20.70;99.90
1011;DHT22;494;48.744;10.106;2023-07-31T20:40:54;20.60;99.90
1011;DHT22;494;48.744;10.106;2023-07-31T20:43:25;20.50;99.90
1011;DHT22;494;48.744;10.106;2023-07-31T20:46:17;20.50;1.00
1011;DHT22;494;48.744;10.106;2023-07-31T20:49:03;20.50;99.90
1011;DHT22;494;48.744;10.106;2023-07-31T20:51:40;20.50;99.90
1011;DHT22;494;48.744;10.106;2023-07-31T20:54:14;20.40;1.00
1011;DHT22;494;48.744;10.106;2023-07-31T20:56:52;20.30;99.90
1011;DHT22;494;48.744;10.106;2023-07-31T20:59:27;20.30;1.00
1011;DHT22;494;48.744;10.106;2023-07-31T21:02:25;20.30;99.90
1011;DHT22;494;48.744;10.106;2023-07-31T21:05:23;20.20;1.00
1011;DHT22;494;48.744;10.106;2023-07-31T21:08:13;20.20;1.00
1011;DHT22;494;48.744;10.106;2023-07-31T21:10:56;20.20;99.90
1011;DHT22;494;48.744;10.106;2023-07-31T21:13:32;20.20;1.00
1011;DHT22;494;48.744;10.106;2023-07-31T21:16:04;20.20;99.90
1011;DHT22;494;48.744;10.106;2023-07-31T21:19:09;20.20;99.90
1011;DHT22;494;48.744;10.106;2023-07-31T21:21:56;20.20;1.00
1011;DHT22;494;48.744;10.106;2023-07-31T21:24:40;20.20;99.90
1011;DHT22;494;48.744;10.106;2023-07-31T21:27:15;20.30;99.90
1011;DHT22;494;48.744;10.106;2023-07-31T21:30:09;20.30;99.90
1011;DHT22;494;48.744;10.106;2023-07-31T21:33:20;20.40;10.60
1011;DHT22;494;48.744;10.106;2023-07-31T21:36:14;20.20;99.90
1011;DHT22;494;48.744;10.106;2023-07-31T21:39:01;20.10;99.90
1011;DHT22;494;48.744;10.106;2023-07-31T21:41:38;20.00;1.00
1011;DHT22;494;48.744;10.106;2023-07-31T21:44:35;20.00;99.90
1011;DHT22;494;48.744;10.106;2023-07-31T21:47:13;20.00;1.00
1011;DHT22;494;48.744;10.106;2023-07-31T21:49:44;19.90;99.90
1011;DHT22;494;48.744;10.106;2023-07-31T21:52:16;19.80;99.90
1011;DHT22;494;48.744;10.106;2023-07-31T21:54:46;19.90;1.00
1011;DHT22;494;48.744;10.106;2023-07-31T21:57:16;19.90;93.20
1011;DHT22;494;48.744;10.106;2023-07-31T21:59:48;19.90;99.90
1011;DHT22;494;48.744;10.106;2023-07-31T22:02:20;19.90;1.00
1011;DHT22;494;48.744;10.106;2023-07-31T22:04:50;19.90;99.90
1011;DHT22;494;48.744;10.106;2023-07-31T22:07:21;20.00;99.90
1011;DHT22;494;48.744;10.106;2023-07-31T22:09:50;20.00;99.90
1011;DHT22;494;48.744;10.106;2023-07-31T22:12:21;20.00;99.90
1011;DHT22;494;48.744;10.106;2023-07-31T22:14:55;20.00;99.90
1011;DHT22;494;48.744;10.106;2023-07-31T22:17:24;19.90;1.00
1011;DHT22;494;48.744;10.106;2023-07-31T22:19:53;19.70;1.00
1011;DHT22;494;48.744;10.106;2023-07-31T22:22:22;19.70;99.90
1011;DHT22;494;48.744;10.106;2023-07-31T22:24:54;19.70;99.90
1011;DHT22;494;48.744;10.106;2023-07-31T22:27:24;19.70;99.90
1011;DHT22;494;48.744;10.106;2023-07-31T22:29:55;19.80;1.00
1011;DHT22;494;48.744;10.106;2023-07-31T22:32:24;19.80;99.90
1011;DHT22;494;48.744;10.106;2023-07-31T22:34:54;19.90;1.00
1011;DHT22;494;48.744;10.106;2023-07-31T22:37:23;20.00;1.00
1011;DHT22;494;48.744;10.106;2023-07-31T22:39:53;20.00;99.90
1011;DHT22;494;48.744;10.106;2023-07-31T22:42:26;20.00;99.90
1011;DHT22;494;48.744;10.106;2023-07-31T22:44:59;20.10;1.00
1011;DHT22;494;48.744;10.106;2023-07-31T22:47:32;20.10;99.90
1011;DHT22;494;48.744;10.106;2023-07-31T22:50:02;20.20;1.00
1011;DHT22;494;48.744;10.106;2023-07-31T22:52:36;20.20;1.00
1011;DHT22;494;48.744;10.106;2023-07-31T22:55:06;20.20;1.00
1011;DHT22;494;48.744;10.106;2023-07-31T22:57:36;20.20;99.90
1011;DHT22;494;48.744;10.106;2023-07-31T23:00:23;20.20;99.90
1011;DHT22;494;48.744;10.106;2023-07-31T23:02:55;20.10;1.00
1011;DHT22;494;48.744;10.106;2023-07-31T23:05:49;20.00;99.90
1011;DHT22;494;48.744;10.106;2023-07-31T23:08:18;19.90;99.90
1011;DHT22;494;48.744;10.106;2023-07-31T23:10:48;19.80;99.90
1011;DHT22;494;48.744;10.106;2023-07-31T23:13:22;19.90;99.90
1011;DHT22;494;48.744;10.106;2023-07-31T23:15:54;19.80;99.90
1011;DHT22;494;48.744;10.106;2023-07-31T23:18:39;19.80;99.90
1011;DHT22;494;48.744;10.106;2023-07-31T23:21:10;19.70;99.90
1011;DHT22;494;48.744;10.106;2023-07-31T23:23:40;19.70;99.90
1011;DHT22;494;48.744;10.106;2023-07-31T23:26:12;19.70;99.90
1011;DHT22;494;48.744;10.106;2023-07-31T23:28:42;19.70;99.90
1011;DHT22;494;48.744;10.106;2023-07-31T23:31:14;19.70;99.90
1011;DHT22;494;48.744;10.106;2023-07-31T23:33:46;19.70;99.90
1011;DHT22;494;48.744;10.106;2023-07-31T23:36:15;19.70;99.90
1011;DHT22;494;48.744;10.106;2023-07-31T23:38:46;19.60;99.90
1011;DHT22;494;48.744;10.106;2023-07-31T23:41:19;19.70;99.90
1011;DHT22;494;48.744;10.106;2023-07-31T23:43:48;19.70;99.90
1011;DHT22;494;48.744;10.106;2023-07-31T23:46:21;19.60;99.90
1011;DHT22;494;48.744;10.106;2023-07-31T23:48:50;19.70;99.90
1011;DHT22;494;48.744;10.106;2023-07-31T23:51:21;19.70;99.90
1011;DHT22;494;48.744;10.106;2023-07-31T23:53:52;19.60;99.90
1011;DHT22;494;48.744;10.106;2023-07-31T23:56:23;19.60;99.90
1011;DHT22;494;48.744;10.106;2023-07-31T23:58:52;19.60;99.90
